sensor_id;sensor_type;location;lat;lon;timestamp;P1;durP1;ratioP1;P2;durP2;ratioP2
33160;SDS011;19522;45.656;11.302;2023-03-31T00:00:10;28.95;;;21.25;;
33160;SDS011;19522;45.656;11.302;2023-03-31T00:02:37;27.42;;;21.52;;
33160;SDS011;19522;45.656;11.302;2023-03-31T00:05:06;31.48;;;21.95;;
33160;SDS011;19522;45.656;11.302;2023-03-31T00:07:32;30.88;;;21.77;;
33160;SDS011;19522;45.656;11.302;2023-03-31T00:10:02;30.25;;;22.15;;
33160;SDS011;19522;45.656;11.302;2023-03-31T00:12:29;28.92;;;21.40;;
33160;SDS011;19522;45.656;11.302;2023-03-31T00:14:55;28.27;;;20.27;;
33160;SDS011;19522;45.656;11.302;2023-03-31T00:17:20;34.40;;;22.13;;
33160;SDS011;19522;45.656;11.302;2023-03-31T00:19:46;30.05;;;21.40;;
33160;SDS011;19522;45.656;11.302;2023-03-31T00:22:14;26.95;;;19.20;;
33160;SDS011;19522;45.656;11.302;2023-03-31T00:24:43;29.20;;;20.90;;
33160;SDS011;19522;45.656;11.302;2023-03-31T00:27:08;28.63;;;20.00;;
33160;SDS011;19522;45.656;11.302;2023-03-31T00:29:35;28.95;;;21.30;;
33160;SDS011;19522;45.656;11.302;2023-03-31T00:32:05;28.45;;;21.05;;
33160;SDS011;19522;45.656;11.302;2023-03-31T00:34:31;30.02;;;21.50;;
33160;SDS011;19522;45.656;11.302;2023-03-31T00:36:56;31.00;;;20.42;;
33160;SDS011;19522;45.656;11.302;2023-03-31T00:39:27;27.40;;;20.80;;
33160;SDS011;19522;45.656;11.302;2023-03-31T00:41:56;27.88;;;20.05;;
33160;SDS011;19522;45.656;11.302;2023-03-31T00:44:23;27.15;;;20.33;;
33160;SDS011;19522;45.656;11.302;2023-03-31T00:49:39;24.77;;;18.13;;
33160;SDS011;19522;45.656;11.302;2023-03-31T00:54:44;25.45;;;19.73;;
33160;SDS011;19522;45.656;11.302;2023-03-31T00:57:13;26.70;;;19.77;;
33160;SDS011;19522;45.656;11.302;2023-03-31T00:59:42;30.08;;;20.83;;
33160;SDS011;19522;45.656;11.302;2023-03-31T01:02:12;27.70;;;20.77;;
33160;SDS011;19522;45.656;11.302;2023-03-31T01:04:40;29.05;;;21.27;;
33160;SDS011;19522;45.656;11.302;2023-03-31T01:09:47;27.27;;;20.08;;
33160;SDS011;19522;45.656;11.302;2023-03-31T01:12:14;30.05;;;21.95;;
33160;SDS011;19522;45.656;11.302;2023-03-31T01:14:42;34.60;;;22.48;;
33160;SDS011;19522;45.656;11.302;2023-03-31T01:17:07;26.23;;;20.40;;
33160;SDS011;19522;45.656;11.302;2023-03-31T01:19:41;28.38;;;20.63;;
33160;SDS011;19522;45.656;11.302;2023-03-31T01:27:46;29.67;;;22.58;;
33160;SDS011;19522;45.656;11.302;2023-03-31T01:44:34;29.17;;;20.85;;
33160;SDS011;19522;45.656;11.302;2023-03-31T01:47:09;31.75;;;22.35;;
33160;SDS011;19522;45.656;11.302;2023-03-31T01:50:07;30.95;;;21.42;;
33160;SDS011;19522;45.656;11.302;2023-03-31T01:55:21;30.73;;;21.70;;
33160;SDS011;19522;45.656;11.302;2023-03-31T01:57:54;32.35;;;21.73;;
33160;SDS011;19522;45.656;11.302;2023-03-31T02:00:31;33.85;;;22.45;;
33160;SDS011;19522;45.656;11.302;2023-03-31T02:05:36;32.15;;;24.85;;
33160;SDS011;19522;45.656;11.302;2023-03-31T02:08:10;33.33;;;24.08;;
33160;SDS011;19522;45.656;11.302;2023-03-31T02:10:40;33.40;;;23.10;;
33160;SDS011;19522;45.656;11.302;2023-03-31T02:13:08;36.58;;;24.52;;
33160;SDS011;19522;45.656;11.302;2023-03-31T02:15:38;37.45;;;24.40;;
33160;SDS011;19522;45.656;11.302;2023-03-31T02:18:08;33.10;;;22.83;;
33160;SDS011;19522;45.656;11.302;2023-03-31T02:20:39;32.95;;;23.45;;
33160;SDS011;19522;45.656;11.302;2023-03-31T02:23:07;35.58;;;23.92;;
33160;SDS011;19522;45.656;11.302;2023-03-31T02:25:45;32.35;;;23.40;;
33160;SDS011;19522;45.656;11.302;2023-03-31T02:28:16;36.20;;;25.77;;
33160;SDS011;19522;45.656;11.302;2023-03-31T02:33:35;35.47;;;24.00;;
33160;SDS011;19522;45.656;11.302;2023-03-31T02:36:01;38.28;;;26.10;;
33160;SDS011;19522;45.656;11.302;2023-03-31T02:38:27;30.85;;;23.48;;
33160;SDS011;19522;45.656;11.302;2023-03-31T02:40:58;32.90;;;24.35;;
33160;SDS011;19522;45.656;11.302;2023-03-31T02:43:23;35.30;;;23.88;;
33160;SDS011;19522;45.656;11.302;2023-03-31T02:45:49;39.42;;;25.60;;
33160;SDS011;19522;45.656;11.302;2023-03-31T02:48:19;34.00;;;24.13;;
33160;SDS011;19522;45.656;11.302;2023-03-31T02:59:32;32.97;;;24.00;;
33160;SDS011;19522;45.656;11.302;2023-03-31T03:17:51;35.10;;;24.58;;
33160;SDS011;19522;45.656;11.302;2023-03-31T03:20:19;34.88;;;23.83;;
33160;SDS011;19522;45.656;11.302;2023-03-31T03:22:46;34.38;;;24.45;;
33160;SDS011;19522;45.656;11.302;2023-03-31T03:25:12;37.92;;;25.15;;
33160;SDS011;19522;45.656;11.302;2023-03-31T03:27:39;30.52;;;22.55;;
33160;SDS011;19522;45.656;11.302;2023-03-31T03:30:06;34.22;;;22.73;;
33160;SDS011;19522;45.656;11.302;2023-03-31T03:32:33;38.92;;;24.20;;
33160;SDS011;19522;45.656;11.302;2023-03-31T03:34:59;37.47;;;26.65;;
33160;SDS011;19522;45.656;11.302;2023-03-31T03:37:28;41.05;;;25.98;;
33160;SDS011;19522;45.656;11.302;2023-03-31T03:39:54;37.90;;;26.38;;
33160;SDS011;19522;45.656;11.302;2023-03-31T03:42:19;34.78;;;25.17;;
33160;SDS011;19522;45.656;11.302;2023-03-31T03:44:45;33.85;;;25.35;;
33160;SDS011;19522;45.656;11.302;2023-03-31T03:47:11;34.83;;;23.92;;
33160;SDS011;19522;45.656;11.302;2023-03-31T03:49:36;34.00;;;24.02;;
33160;SDS011;19522;45.656;11.302;2023-03-31T03:52:02;32.70;;;24.35;;
33160;SDS011;19522;45.656;11.302;2023-03-31T03:54:28;31.08;;;22.30;;
33160;SDS011;19522;45.656;11.302;2023-03-31T03:56:54;36.72;;;25.58;;
33160;SDS011;19522;45.656;11.302;2023-03-31T03:59:19;36.10;;;22.10;;
33160;SDS011;19522;45.656;11.302;2023-03-31T04:01:45;35.50;;;23.83;;
33160;SDS011;19522;45.656;11.302;2023-03-31T04:04:11;35.72;;;24.42;;
33160;SDS011;19522;45.656;11.302;2023-03-31T04:06:36;31.15;;;21.25;;
33160;SDS011;19522;45.656;11.302;2023-03-31T04:09:02;31.98;;;23.58;;
33160;SDS011;19522;45.656;11.302;2023-03-31T04:11:40;36.80;;;24.33;;
33160;SDS011;19522;45.656;11.302;2023-03-31T04:14:06;32.20;;;23.35;;
33160;SDS011;19522;45.656;11.302;2023-03-31T04:16:32;36.70;;;24.15;;
33160;SDS011;19522;45.656;11.302;2023-03-31T04:18:58;33.80;;;24.13;;
33160;SDS011;19522;45.656;11.302;2023-03-31T04:21:28;38.25;;;25.70;;
33160;SDS011;19522;45.656;11.302;2023-03-31T04:23:54;36.45;;;25.17;;
33160;SDS011;19522;45.656;11.302;2023-03-31T04:26:26;34.33;;;22.42;;
33160;SDS011;19522;45.656;11.302;2023-03-31T04:29:05;38.25;;;24.73;;
33160;SDS011;19522;45.656;11.302;2023-03-31T04:31:32;42.30;;;25.98;;
33160;SDS011;19522;45.656;11.302;2023-03-31T04:33:58;34.35;;;25.60;;
33160;SDS011;19522;45.656;11.302;2023-03-31T04:36:27;33.63;;;24.27;;
33160;SDS011;19522;45.656;11.302;2023-03-31T04:38:53;33.55;;;23.92;;
33160;SDS011;19522;45.656;11.302;2023-03-31T04:41:22;32.70;;;22.88;;
33160;SDS011;19522;45.656;11.302;2023-03-31T04:43:49;32.60;;;23.63;;
33160;SDS011;19522;45.656;11.302;2023-03-31T04:46:15;34.60;;;24.48;;
33160;SDS011;19522;45.656;11.302;2023-03-31T04:48:41;34.63;;;25.38;;
33160;SDS011;19522;45.656;11.302;2023-03-31T04:51:07;36.92;;;25.30;;
33160;SDS011;19522;45.656;11.302;2023-03-31T04:53:33;34.17;;;24.63;;
33160;SDS011;19522;45.656;11.302;2023-03-31T04:55:59;35.17;;;23.95;;
33160;SDS011;19522;45.656;11.302;2023-03-31T04:58:25;38.25;;;25.13;;
33160;SDS011;19522;45.656;11.302;2023-03-31T05:00:50;37.03;;;24.88;;
33160;SDS011;19522;45.656;11.302;2023-03-31T05:03:17;32.50;;;24.27;;
33160;SDS011;19522;45.656;11.302;2023-03-31T05:05:42;34.58;;;24.63;;
33160;SDS011;19522;45.656;11.302;2023-03-31T05:08:08;37.35;;;23.85;;
33160;SDS011;19522;45.656;11.302;2023-03-31T05:10:33;37.95;;;25.63;;
33160;SDS011;19522;45.656;11.302;2023-03-31T05:12:58;34.22;;;24.75;;
33160;SDS011;19522;45.656;11.302;2023-03-31T05:15:24;38.30;;;24.13;;
33160;SDS011;19522;45.656;11.302;2023-03-31T05:17:50;36.92;;;25.48;;
33160;SDS011;19522;45.656;11.302;2023-03-31T05:20:16;34.97;;;23.73;;
33160;SDS011;19522;45.656;11.302;2023-03-31T05:22:43;36.33;;;24.52;;
33160;SDS011;19522;45.656;11.302;2023-03-31T05:25:10;35.50;;;24.63;;
33160;SDS011;19522;45.656;11.302;2023-03-31T05:27:43;38.55;;;26.00;;
33160;SDS011;19522;45.656;11.302;2023-03-31T05:30:11;38.53;;;26.33;;
33160;SDS011;19522;45.656;11.302;2023-03-31T05:32:38;34.10;;;23.88;;
33160;SDS011;19522;45.656;11.302;2023-03-31T05:35:04;40.25;;;26.00;;
33160;SDS011;19522;45.656;11.302;2023-03-31T05:37:30;40.28;;;26.92;;
33160;SDS011;19522;45.656;11.302;2023-03-31T05:39:55;35.80;;;24.67;;
33160;SDS011;19522;45.656;11.302;2023-03-31T05:42:21;33.58;;;23.95;;
33160;SDS011;19522;45.656;11.302;2023-03-31T05:44:47;35.78;;;24.38;;
33160;SDS011;19522;45.656;11.302;2023-03-31T05:47:12;37.97;;;26.50;;
33160;SDS011;19522;45.656;11.302;2023-03-31T05:49:38;36.45;;;24.85;;
33160;SDS011;19522;45.656;11.302;2023-03-31T05:52:04;36.28;;;24.50;;
33160;SDS011;19522;45.656;11.302;2023-03-31T05:54:31;40.33;;;27.08;;
33160;SDS011;19522;45.656;11.302;2023-03-31T05:56:56;31.23;;;24.23;;
33160;SDS011;19522;45.656;11.302;2023-03-31T05:59:25;39.08;;;24.85;;
33160;SDS011;19522;45.656;11.302;2023-03-31T06:01:50;33.53;;;25.35;;
33160;SDS011;19522;45.656;11.302;2023-03-31T06:04:16;35.50;;;24.58;;
33160;SDS011;19522;45.656;11.302;2023-03-31T06:06:41;32.78;;;23.85;;
33160;SDS011;19522;45.656;11.302;2023-03-31T06:09:08;37.00;;;24.02;;
33160;SDS011;19522;45.656;11.302;2023-03-31T06:11:36;40.95;;;27.08;;
33160;SDS011;19522;45.656;11.302;2023-03-31T06:14:02;34.15;;;25.17;;
33160;SDS011;19522;45.656;11.302;2023-03-31T06:16:28;41.60;;;28.27;;
33160;SDS011;19522;45.656;11.302;2023-03-31T06:18:53;36.17;;;26.05;;
33160;SDS011;19522;45.656;11.302;2023-03-31T06:21:19;37.22;;;26.75;;
33160;SDS011;19522;45.656;11.302;2023-03-31T06:23:45;33.72;;;25.83;;
33160;SDS011;19522;45.656;11.302;2023-03-31T06:26:15;36.33;;;24.83;;
33160;SDS011;19522;45.656;11.302;2023-03-31T06:28:42;35.47;;;24.48;;
33160;SDS011;19522;45.656;11.302;2023-03-31T06:31:12;37.78;;;25.02;;
33160;SDS011;19522;45.656;11.302;2023-03-31T06:33:39;35.85;;;25.75;;
33160;SDS011;19522;45.656;11.302;2023-03-31T06:36:07;33.40;;;24.60;;
33160;SDS011;19522;45.656;11.302;2023-03-31T06:38:33;35.67;;;24.60;;
33160;SDS011;19522;45.656;11.302;2023-03-31T06:41:00;37.65;;;26.85;;
33160;SDS011;19522;45.656;11.302;2023-03-31T06:43:25;41.25;;;28.80;;
33160;SDS011;19522;45.656;11.302;2023-03-31T06:45:51;35.33;;;25.90;;
33160;SDS011;19522;45.656;11.302;2023-03-31T06:48:17;41.53;;;27.70;;
33160;SDS011;19522;45.656;11.302;2023-03-31T06:50:43;40.47;;;27.65;;
33160;SDS011;19522;45.656;11.302;2023-03-31T06:53:08;41.70;;;28.02;;
33160;SDS011;19522;45.656;11.302;2023-03-31T06:55:35;39.45;;;28.77;;
33160;SDS011;19522;45.656;11.302;2023-03-31T06:58:02;37.80;;;27.13;;
33160;SDS011;19522;45.656;11.302;2023-03-31T07:00:28;35.45;;;26.95;;
33160;SDS011;19522;45.656;11.302;2023-03-31T07:02:54;37.55;;;26.15;;
33160;SDS011;19522;45.656;11.302;2023-03-31T07:05:20;40.42;;;27.10;;
33160;SDS011;19522;45.656;11.302;2023-03-31T07:07:55;39.22;;;26.77;;
33160;SDS011;19522;45.656;11.302;2023-03-31T07:10:22;34.60;;;25.65;;
33160;SDS011;19522;45.656;11.302;2023-03-31T07:12:48;36.35;;;26.65;;
33160;SDS011;19522;45.656;11.302;2023-03-31T07:15:14;36.40;;;26.33;;
33160;SDS011;19522;45.656;11.302;2023-03-31T07:17:40;38.35;;;24.60;;
33160;SDS011;19522;45.656;11.302;2023-03-31T07:20:09;34.35;;;24.48;;
33160;SDS011;19522;45.656;11.302;2023-03-31T07:22:37;41.65;;;27.38;;
33160;SDS011;19522;45.656;11.302;2023-03-31T07:25:03;41.38;;;27.50;;
33160;SDS011;19522;45.656;11.302;2023-03-31T07:27:29;39.22;;;28.58;;
33160;SDS011;19522;45.656;11.302;2023-03-31T07:29:54;36.28;;;27.17;;
33160;SDS011;19522;45.656;11.302;2023-03-31T07:32:20;42.00;;;27.10;;
33160;SDS011;19522;45.656;11.302;2023-03-31T07:34:47;38.63;;;26.45;;
33160;SDS011;19522;45.656;11.302;2023-03-31T07:37:13;36.88;;;26.67;;
33160;SDS011;19522;45.656;11.302;2023-03-31T07:39:38;37.97;;;26.67;;
33160;SDS011;19522;45.656;11.302;2023-03-31T07:42:04;39.58;;;27.33;;
33160;SDS011;19522;45.656;11.302;2023-03-31T07:44:31;39.08;;;26.80;;
33160;SDS011;19522;45.656;11.302;2023-03-31T07:47:00;39.40;;;27.02;;
33160;SDS011;19522;45.656;11.302;2023-03-31T07:49:31;40.00;;;27.55;;
33160;SDS011;19522;45.656;11.302;2023-03-31T07:51:58;38.22;;;26.95;;
33160;SDS011;19522;45.656;11.302;2023-03-31T07:54:24;37.20;;;25.85;;
33160;SDS011;19522;45.656;11.302;2023-03-31T07:56:50;36.75;;;27.20;;
33160;SDS011;19522;45.656;11.302;2023-03-31T07:59:16;41.20;;;27.20;;
33160;SDS011;19522;45.656;11.302;2023-03-31T08:01:41;38.22;;;27.27;;
33160;SDS011;19522;45.656;11.302;2023-03-31T08:04:08;39.10;;;26.60;;
33160;SDS011;19522;45.656;11.302;2023-03-31T08:06:34;39.35;;;25.70;;
33160;SDS011;19522;45.656;11.302;2023-03-31T08:09:00;36.10;;;26.70;;
33160;SDS011;19522;45.656;11.302;2023-03-31T08:11:25;47.03;;;30.88;;
33160;SDS011;19522;45.656;11.302;2023-03-31T08:13:51;43.30;;;29.25;;
33160;SDS011;19522;45.656;11.302;2023-03-31T08:16:17;40.50;;;28.13;;
33160;SDS011;19522;45.656;11.302;2023-03-31T08:18:42;39.13;;;26.70;;
33160;SDS011;19522;45.656;11.302;2023-03-31T08:21:08;43.78;;;27.85;;
33160;SDS011;19522;45.656;11.302;2023-03-31T08:23:34;42.38;;;27.92;;
33160;SDS011;19522;45.656;11.302;2023-03-31T08:26:13;45.58;;;28.42;;
33160;SDS011;19522;45.656;11.302;2023-03-31T08:28:42;40.60;;;28.17;;
33160;SDS011;19522;45.656;11.302;2023-03-31T08:31:08;43.58;;;29.15;;
33160;SDS011;19522;45.656;11.302;2023-03-31T08:33:34;41.45;;;30.60;;
33160;SDS011;19522;45.656;11.302;2023-03-31T08:36:02;41.75;;;28.45;;
33160;SDS011;19522;45.656;11.302;2023-03-31T08:38:30;48.63;;;31.52;;
33160;SDS011;19522;45.656;11.302;2023-03-31T08:41:02;39.40;;;27.65;;
33160;SDS011;19522;45.656;11.302;2023-03-31T08:43:31;42.27;;;29.10;;
33160;SDS011;19522;45.656;11.302;2023-03-31T08:46:01;42.45;;;29.33;;
33160;SDS011;19522;45.656;11.302;2023-03-31T08:48:33;40.22;;;28.80;;
33160;SDS011;19522;45.656;11.302;2023-03-31T08:51:19;42.13;;;29.10;;
33160;SDS011;19522;45.656;11.302;2023-03-31T08:53:52;43.50;;;30.48;;
33160;SDS011;19522;45.656;11.302;2023-03-31T08:56:24;44.08;;;29.60;;
33160;SDS011;19522;45.656;11.302;2023-03-31T08:58:51;39.60;;;28.65;;
33160;SDS011;19522;45.656;11.302;2023-03-31T09:15:28;29.85;;;21.23;;
33160;SDS011;19522;45.656;11.302;2023-03-31T09:17:54;49.00;;;32.55;;
33160;SDS011;19522;45.656;11.302;2023-03-31T09:20:33;51.17;;;30.55;;
33160;SDS011;19522;45.656;11.302;2023-03-31T09:25:45;38.72;;;28.20;;
33160;SDS011;19522;45.656;11.302;2023-03-31T09:28:21;40.53;;;27.27;;
33160;SDS011;19522;45.656;11.302;2023-03-31T09:30:59;39.22;;;26.17;;
33160;SDS011;19522;45.656;11.302;2023-03-31T09:33:29;40.95;;;25.90;;
33160;SDS011;19522;45.656;11.302;2023-03-31T09:36:01;47.03;;;26.60;;
33160;SDS011;19522;45.656;11.302;2023-03-31T09:38:32;38.20;;;24.83;;
33160;SDS011;19522;45.656;11.302;2023-03-31T09:41:01;45.15;;;24.95;;
33160;SDS011;19522;45.656;11.302;2023-03-31T09:43:29;36.80;;;22.60;;
33160;SDS011;19522;45.656;11.302;2023-03-31T09:45:59;36.00;;;23.83;;
33160;SDS011;19522;45.656;11.302;2023-03-31T09:48:26;37.75;;;24.63;;
33160;SDS011;19522;45.656;11.302;2023-03-31T09:51:02;35.05;;;24.05;;
33160;SDS011;19522;45.656;11.302;2023-03-31T09:53:42;33.42;;;22.98;;
33160;SDS011;19522;45.656;11.302;2023-03-31T09:56:13;39.75;;;24.17;;
33160;SDS011;19522;45.656;11.302;2023-03-31T09:59:00;39.63;;;24.00;;
33160;SDS011;19522;45.656;11.302;2023-03-31T10:01:26;41.17;;;23.77;;
33160;SDS011;19522;45.656;11.302;2023-03-31T10:03:53;41.97;;;24.02;;
33160;SDS011;19522;45.656;11.302;2023-03-31T10:06:20;35.47;;;21.50;;
33160;SDS011;19522;45.656;11.302;2023-03-31T10:11:15;40.50;;;24.23;;
33160;SDS011;19522;45.656;11.302;2023-03-31T10:16:44;36.15;;;23.05;;
33160;SDS011;19522;45.656;11.302;2023-03-31T10:21:44;36.70;;;23.92;;
33160;SDS011;19522;45.656;11.302;2023-03-31T10:24:11;38.80;;;22.88;;
33160;SDS011;19522;45.656;11.302;2023-03-31T10:26:41;38.28;;;22.73;;
33160;SDS011;19522;45.656;11.302;2023-03-31T10:29:11;34.97;;;22.13;;
33160;SDS011;19522;45.656;11.302;2023-03-31T10:31:39;36.00;;;21.95;;
33160;SDS011;19522;45.656;11.302;2023-03-31T10:34:05;36.58;;;21.85;;
33160;SDS011;19522;45.656;11.302;2023-03-31T10:36:33;31.48;;;22.10;;
33160;SDS011;19522;45.656;11.302;2023-03-31T10:39:03;36.13;;;23.70;;
33160;SDS011;19522;45.656;11.302;2023-03-31T10:41:31;34.72;;;22.05;;
33160;SDS011;19522;45.656;11.302;2023-03-31T10:43:58;36.60;;;22.88;;
33160;SDS011;19522;45.656;11.302;2023-03-31T10:46:45;38.83;;;23.02;;
33160;SDS011;19522;45.656;11.302;2023-03-31T10:49:36;37.08;;;22.98;;
33160;SDS011;19522;45.656;11.302;2023-03-31T10:52:01;36.45;;;22.65;;
33160;SDS011;19522;45.656;11.302;2023-03-31T10:54:27;40.60;;;25.20;;
33160;SDS011;19522;45.656;11.302;2023-03-31T10:56:54;41.83;;;25.80;;
33160;SDS011;19522;45.656;11.302;2023-03-31T10:59:27;35.10;;;23.50;;
33160;SDS011;19522;45.656;11.302;2023-03-31T11:21:14;35.47;;;23.90;;
33160;SDS011;19522;45.656;11.302;2023-03-31T11:31:39;38.63;;;26.10;;
33160;SDS011;19522;45.656;11.302;2023-03-31T11:37:53;37.03;;;23.33;;
33160;SDS011;19522;45.656;11.302;2023-03-31T11:43:28;39.03;;;25.55;;
33160;SDS011;19522;45.656;11.302;2023-03-31T11:51:49;34.70;;;23.80;;
33160;SDS011;19522;45.656;11.302;2023-03-31T11:56:49;42.92;;;25.50;;
33160;SDS011;19522;45.656;11.302;2023-03-31T11:59:16;32.90;;;22.35;;
33160;SDS011;19522;45.656;11.302;2023-03-31T12:02:09;38.00;;;23.83;;
33160;SDS011;19522;45.656;11.302;2023-03-31T12:04:43;46.17;;;26.23;;
33160;SDS011;19522;45.656;11.302;2023-03-31T12:07:23;35.05;;;24.35;;
33160;SDS011;19522;45.656;11.302;2023-03-31T12:12:29;41.60;;;27.83;;
33160;SDS011;19522;45.656;11.302;2023-03-31T12:15:19;41.90;;;26.67;;
33160;SDS011;19522;45.656;11.302;2023-03-31T12:17:54;39.92;;;25.20;;
33160;SDS011;19522;45.656;11.302;2023-03-31T12:20:27;39.63;;;25.02;;
33160;SDS011;19522;45.656;11.302;2023-03-31T12:22:57;38.88;;;23.83;;
33160;SDS011;19522;45.656;11.302;2023-03-31T12:25:24;40.55;;;25.63;;
33160;SDS011;19522;45.656;11.302;2023-03-31T12:28:03;40.15;;;24.90;;
33160;SDS011;19522;45.656;11.302;2023-03-31T12:30:39;37.67;;;24.10;;
33160;SDS011;19522;45.656;11.302;2023-03-31T12:33:18;34.80;;;23.38;;
33160;SDS011;19522;45.656;11.302;2023-03-31T12:38:57;42.88;;;25.40;;
33160;SDS011;19522;45.656;11.302;2023-03-31T12:50:31;39.05;;;25.08;;
33160;SDS011;19522;45.656;11.302;2023-03-31T12:55:24;39.03;;;27.23;;
33160;SDS011;19522;45.656;11.302;2023-03-31T12:58:44;40.47;;;25.75;;
33160;SDS011;19522;45.656;11.302;2023-03-31T13:03:43;43.40;;;28.70;;
33160;SDS011;19522;45.656;11.302;2023-03-31T13:06:10;42.75;;;28.27;;
33160;SDS011;19522;45.656;11.302;2023-03-31T13:14:18;40.38;;;26.38;;
33160;SDS011;19522;45.656;11.302;2023-03-31T13:17:10;38.67;;;25.50;;
33160;SDS011;19522;45.656;11.302;2023-03-31T13:19:56;40.22;;;25.90;;
33160;SDS011;19522;45.656;11.302;2023-03-31T13:22:45;39.38;;;25.17;;
33160;SDS011;19522;45.656;11.302;2023-03-31T13:25:36;40.63;;;26.92;;
33160;SDS011;19522;45.656;11.302;2023-03-31T13:31:02;39.13;;;25.02;;
33160;SDS011;19522;45.656;11.302;2023-03-31T13:42:23;44.28;;;26.48;;
33160;SDS011;19522;45.656;11.302;2023-03-31T13:50:28;38.50;;;26.83;;
33160;SDS011;19522;45.656;11.302;2023-03-31T13:58:25;40.55;;;24.77;;
33160;SDS011;19522;45.656;11.302;2023-03-31T14:04:33;35.30;;;24.05;;
33160;SDS011;19522;45.656;11.302;2023-03-31T14:06:54;40.33;;;26.67;;
33160;SDS011;19522;45.656;11.302;2023-03-31T14:09:30;37.67;;;25.27;;
33160;SDS011;19522;45.656;11.302;2023-03-31T14:14:44;38.33;;;26.30;;
33160;SDS011;19522;45.656;11.302;2023-03-31T14:17:10;35.72;;;25.77;;
33160;SDS011;19522;45.656;11.302;2023-03-31T14:22:05;43.72;;;25.90;;
33160;SDS011;19522;45.656;11.302;2023-03-31T14:24:54;42.67;;;26.88;;
33160;SDS011;19522;45.656;11.302;2023-03-31T14:30:36;44.70;;;26.95;;
33160;SDS011;19522;45.656;11.302;2023-03-31T14:33:39;35.78;;;25.98;;
33160;SDS011;19522;45.656;11.302;2023-03-31T14:36:29;48.35;;;26.52;;
33160;SDS011;19522;45.656;11.302;2023-03-31T14:39:07;42.17;;;26.30;;
33160;SDS011;19522;45.656;11.302;2023-03-31T14:41:34;41.75;;;25.02;;
33160;SDS011;19522;45.656;11.302;2023-03-31T14:44:02;41.88;;;24.65;;
33160;SDS011;19522;45.656;11.302;2023-03-31T14:46:31;40.53;;;24.83;;
33160;SDS011;19522;45.656;11.302;2023-03-31T14:49:05;41.95;;;26.45;;
33160;SDS011;19522;45.656;11.302;2023-03-31T14:51:42;37.72;;;24.10;;
33160;SDS011;19522;45.656;11.302;2023-03-31T14:54:15;40.83;;;25.02;;
33160;SDS011;19522;45.656;11.302;2023-03-31T14:56:46;38.03;;;24.95;;
33160;SDS011;19522;45.656;11.302;2023-03-31T14:59:21;36.88;;;26.58;;
33160;SDS011;19522;45.656;11.302;2023-03-31T15:01:52;33.72;;;23.55;;
33160;SDS011;19522;45.656;11.302;2023-03-31T15:04:22;42.58;;;25.80;;
33160;SDS011;19522;45.656;11.302;2023-03-31T15:06:49;42.50;;;26.08;;
33160;SDS011;19522;45.656;11.302;2023-03-31T15:09:21;38.63;;;25.13;;
33160;SDS011;19522;45.656;11.302;2023-03-31T15:11:58;35.15;;;25.15;;
33160;SDS011;19522;45.656;11.302;2023-03-31T15:20:00;40.92;;;27.00;;
33160;SDS011;19522;45.656;11.302;2023-03-31T15:22:57;35.80;;;25.23;;
33160;SDS011;19522;45.656;11.302;2023-03-31T15:25:25;40.78;;;26.33;;
33160;SDS011;19522;45.656;11.302;2023-03-31T15:28:10;43.03;;;28.25;;
33160;SDS011;19522;45.656;11.302;2023-03-31T15:30:39;45.28;;;30.45;;
33160;SDS011;19522;45.656;11.302;2023-03-31T15:33:06;42.45;;;29.13;;
33160;SDS011;19522;45.656;11.302;2023-03-31T15:35:33;41.67;;;27.23;;
33160;SDS011;19522;45.656;11.302;2023-03-31T15:38:04;40.35;;;27.27;;
33160;SDS011;19522;45.656;11.302;2023-03-31T15:53:28;67.97;;;44.92;;
33160;SDS011;19522;45.656;11.302;2023-03-31T16:01:26;56.30;;;37.97;;
33160;SDS011;19522;45.656;11.302;2023-03-31T16:03:56;58.58;;;37.10;;
33160;SDS011;19522;45.656;11.302;2023-03-31T16:09:08;49.35;;;35.42;;
33160;SDS011;19522;45.656;11.302;2023-03-31T16:11:59;42.35;;;28.10;;
33160;SDS011;19522;45.656;11.302;2023-03-31T16:14:28;55.60;;;36.45;;
33160;SDS011;19522;45.656;11.302;2023-03-31T16:16:59;53.95;;;35.55;;
33160;SDS011;19522;45.656;11.302;2023-03-31T16:19:29;53.92;;;37.35;;
33160;SDS011;19522;45.656;11.302;2023-03-31T16:21:57;52.42;;;36.92;;
33160;SDS011;19522;45.656;11.302;2023-03-31T16:24:32;52.10;;;34.58;;
33160;SDS011;19522;45.656;11.302;2023-03-31T16:27:03;52.10;;;36.35;;
33160;SDS011;19522;45.656;11.302;2023-03-31T16:29:34;48.25;;;31.90;;
33160;SDS011;19522;45.656;11.302;2023-03-31T16:32:05;48.95;;;33.38;;
33160;SDS011;19522;45.656;11.302;2023-03-31T16:34:33;46.88;;;32.40;;
33160;SDS011;19522;45.656;11.302;2023-03-31T16:36:59;56.42;;;36.05;;
33160;SDS011;19522;45.656;11.302;2023-03-31T16:39:32;58.63;;;36.42;;
33160;SDS011;19522;45.656;11.302;2023-03-31T16:41:57;53.85;;;36.55;;
33160;SDS011;19522;45.656;11.302;2023-03-31T16:44:23;52.92;;;37.90;;
33160;SDS011;19522;45.656;11.302;2023-03-31T16:46:48;58.25;;;39.42;;
33160;SDS011;19522;45.656;11.302;2023-03-31T16:49:14;60.35;;;39.53;;
33160;SDS011;19522;45.656;11.302;2023-03-31T16:51:39;58.13;;;40.05;;
33160;SDS011;19522;45.656;11.302;2023-03-31T16:54:05;57.78;;;39.03;;
33160;SDS011;19522;45.656;11.302;2023-03-31T16:56:30;61.00;;;39.33;;
33160;SDS011;19522;45.656;11.302;2023-03-31T16:58:55;58.25;;;38.47;;
33160;SDS011;19522;45.656;11.302;2023-03-31T17:01:21;55.60;;;37.95;;
33160;SDS011;19522;45.656;11.302;2023-03-31T17:03:46;52.22;;;36.20;;
33160;SDS011;19522;45.656;11.302;2023-03-31T17:06:12;51.53;;;35.95;;
33160;SDS011;19522;45.656;11.302;2023-03-31T17:08:38;55.53;;;39.85;;
33160;SDS011;19522;45.656;11.302;2023-03-31T17:11:07;55.70;;;39.50;;
33160;SDS011;19522;45.656;11.302;2023-03-31T17:13:36;49.25;;;37.65;;
33160;SDS011;19522;45.656;11.302;2023-03-31T17:16:03;62.88;;;41.38;;
33160;SDS011;19522;45.656;11.302;2023-03-31T17:18:30;59.67;;;41.20;;
33160;SDS011;19522;45.656;11.302;2023-03-31T17:21:05;52.67;;;38.50;;
33160;SDS011;19522;45.656;11.302;2023-03-31T17:23:33;57.53;;;39.88;;
33160;SDS011;19522;45.656;11.302;2023-03-31T17:26:00;66.78;;;44.78;;
33160;SDS011;19522;45.656;11.302;2023-03-31T17:28:26;63.45;;;45.22;;
33160;SDS011;19522;45.656;11.302;2023-03-31T17:30:54;68.63;;;46.63;;
33160;SDS011;19522;45.656;11.302;2023-03-31T17:33:19;76.20;;;51.50;;
33160;SDS011;19522;45.656;11.302;2023-03-31T17:35:46;63.20;;;43.83;;
33160;SDS011;19522;45.656;11.302;2023-03-31T17:38:11;57.30;;;40.92;;
33160;SDS011;19522;45.656;11.302;2023-03-31T17:40:38;68.13;;;47.28;;
33160;SDS011;19522;45.656;11.302;2023-03-31T17:43:04;64.15;;;43.97;;
33160;SDS011;19522;45.656;11.302;2023-03-31T17:45:31;61.85;;;44.58;;
33160;SDS011;19522;45.656;11.302;2023-03-31T17:47:58;65.85;;;44.25;;
33160;SDS011;19522;45.656;11.302;2023-03-31T17:50:24;68.05;;;45.75;;
33160;SDS011;19522;45.656;11.302;2023-03-31T17:52:50;58.70;;;44.10;;
33160;SDS011;19522;45.656;11.302;2023-03-31T17:55:16;61.80;;;43.22;;